createdAt,value
2024-04-24T00:00:36.513Z,493.00
2024-04-24T00:01:36.538Z,491.00
2024-04-24T00:02:36.669Z,489.00
2024-04-24T00:03:36.596Z,488.00
2024-04-24T00:04:36.527Z,487.00
2024-04-24T00:05:36.545Z,487.00
2024-04-24T00:06:36.522Z,487.00
2024-04-24T00:07:36.508Z,486.00
2024-04-24T00:08:36.562Z,486.00
2024-04-24T00:09:36.773Z,486.00
2024-04-24T00:10:37.749Z,487.00
2024-04-24T00:11:36.566Z,485.00
2024-04-24T00:12:36.567Z,485.00
2024-04-24T00:13:36.541Z,485.00
2024-04-24T00:14:36.514Z,487.00
2024-04-24T00:15:36.555Z,487.00
2024-04-24T00:16:36.665Z,484.00
2024-04-24T00:17:36.849Z,486.00
2024-04-24T00:18:36.876Z,487.00
2024-04-24T00:19:36.853Z,488.00
2024-04-24T00:20:36.887Z,489.00
2024-04-24T00:21:37.082Z,489.00
2024-04-24T00:22:37.060Z,489.00
2024-04-24T00:23:37.207Z,488.00
2024-04-24T00:24:37.220Z,488.00
2024-04-24T00:25:37.331Z,487.00
2024-04-24T00:26:37.401Z,488.00
2024-04-24T00:27:37.527Z,487.00
2024-04-24T00:28:37.643Z,488.00
2024-04-24T00:29:37.678Z,487.00
2024-04-24T00:30:37.620Z,487.00
2024-04-24T00:31:38.694Z,486.00
2024-04-24T00:32:37.780Z,484.00
2024-04-24T00:33:37.918Z,483.00
2024-04-24T00:34:37.906Z,484.00
2024-04-24T00:35:37.971Z,484.00
2024-04-24T00:36:38.023Z,481.00
2024-04-24T00:37:40.118Z,482.00
2024-04-24T00:38:38.149Z,482.00
2024-04-24T00:39:38.148Z,482.00
2024-04-24T00:40:38.262Z,483.00
2024-04-24T00:41:38.100Z,483.00
2024-04-24T00:42:38.107Z,485.00
2024-04-24T00:43:38.115Z,485.00
2024-04-24T00:44:38.140Z,486.00
2024-04-24T00:45:38.144Z,485.00
2024-04-24T00:46:38.136Z,482.00
2024-04-24T00:47:38.215Z,484.00
2024-04-24T00:48:38.206Z,485.00
2024-04-24T00:49:38.107Z,486.00
2024-04-24T00:50:38.179Z,485.00
2024-04-24T00:51:38.660Z,485.00
2024-04-24T00:52:38.304Z,482.00
2024-04-24T00:53:38.148Z,482.00
2024-04-24T00:54:38.130Z,483.00
2024-04-24T00:55:38.143Z,482.00
2024-04-24T00:56:38.135Z,484.00
2024-04-24T00:57:38.273Z,484.00
2024-04-24T00:58:38.148Z,482.00
2024-04-24T00:59:38.142Z,481.00
2024-04-24T01:00:40.739Z,478.00
2024-04-24T01:01:38.130Z,479.00
2024-04-24T01:02:38.169Z,482.00
2024-04-24T01:03:38.154Z,484.00
2024-04-24T01:04:38.242Z,484.00
2024-04-24T01:05:38.167Z,483.00
2024-04-24T01:06:38.348Z,483.00
2024-04-24T01:07:38.276Z,484.00
2024-04-24T01:08:38.167Z,485.00
2024-04-24T01:09:38.205Z,484.00
2024-04-24T01:10:38.162Z,484.00
2024-04-24T01:11:38.319Z,482.00
2024-04-24T01:12:38.161Z,481.00
2024-04-24T01:13:38.186Z,479.00
2024-04-24T01:14:38.184Z,478.00
2024-04-24T01:15:38.142Z,478.00
2024-04-24T01:16:38.159Z,479.00
2024-04-24T01:17:38.278Z,481.00
2024-04-24T01:18:38.209Z,482.00
2024-04-24T01:19:38.162Z,484.00
2024-04-24T01:20:38.170Z,483.00
2024-04-24T01:21:48.077Z,485.00
2024-04-24T01:22:38.287Z,487.00
2024-04-24T01:23:38.174Z,487.00
2024-04-24T01:24:38.230Z,488.00
2024-04-24T01:25:38.220Z,487.00
2024-04-24T01:26:38.320Z,488.00
2024-04-24T01:27:38.294Z,489.00
2024-04-24T01:28:38.201Z,489.00
2024-04-24T01:29:38.212Z,488.00
2024-04-24T01:30:38.233Z,489.00
2024-04-24T01:31:38.213Z,492.00
2024-04-24T01:32:38.305Z,493.00
2024-04-24T01:33:38.200Z,493.00
2024-04-24T01:34:38.246Z,494.00
2024-04-24T01:35:38.276Z,493.00
2024-04-24T01:36:38.187Z,492.00
2024-04-24T01:37:38.204Z,489.00
2024-04-24T01:38:38.200Z,485.00
2024-04-24T01:39:38.181Z,482.00
2024-04-24T01:40:38.181Z,483.00
2024-04-24T01:41:38.214Z,485.00
2024-04-24T01:42:38.206Z,489.00
2024-04-24T01:43:38.222Z,490.00
2024-04-24T01:44:38.238Z,489.00
2024-04-24T01:45:38.398Z,487.00
2024-04-24T01:46:38.342Z,490.00
2024-04-24T01:47:38.435Z,490.00
2024-04-24T01:48:38.520Z,490.00
2024-04-24T01:49:38.410Z,488.00
2024-04-24T01:50:38.279Z,488.00
2024-04-24T01:51:38.278Z,487.00
2024-04-24T01:52:38.321Z,485.00
2024-04-24T01:53:38.328Z,483.00
2024-04-24T01:54:38.357Z,483.00
2024-04-24T01:55:38.305Z,483.00
2024-04-24T01:56:38.322Z,482.00
2024-04-24T01:57:38.356Z,486.00
2024-04-24T01:58:38.301Z,488.00
2024-04-24T01:59:38.355Z,487.00
2024-04-24T02:00:38.396Z,488.00
2024-04-24T02:01:38.447Z,488.00
2024-04-24T02:02:38.429Z,485.00
2024-04-24T02:03:38.497Z,486.00
2024-04-24T02:04:38.417Z,485.00
2024-04-24T02:05:38.370Z,485.00
2024-04-24T02:06:38.402Z,483.00
2024-04-24T02:07:38.405Z,478.00
2024-04-24T02:08:38.400Z,479.00
2024-04-24T02:09:38.411Z,478.00
2024-04-24T02:10:38.455Z,483.00
2024-04-24T02:11:38.533Z,484.00
2024-04-24T02:12:38.499Z,483.00
2024-04-24T02:13:38.501Z,486.00
2024-04-24T02:14:38.660Z,486.00
2024-04-24T02:15:38.603Z,485.00
2024-04-24T02:16:38.746Z,488.00
2024-04-24T02:17:38.620Z,486.00
2024-04-24T02:18:38.726Z,487.00
2024-04-24T02:19:38.596Z,487.00
2024-04-24T02:20:38.602Z,486.00
2024-04-24T02:21:38.643Z,483.00
2024-04-24T02:22:38.654Z,482.00
2024-04-24T02:23:38.641Z,481.00
2024-04-24T02:24:38.707Z,480.00
2024-04-24T02:25:38.704Z,477.00
2024-04-24T02:26:38.703Z,476.00
2024-04-24T02:27:38.749Z,476.00
2024-04-24T02:28:38.757Z,476.00
2024-04-24T02:29:48.143Z,476.00
2024-04-24T02:30:39.759Z,480.00
2024-04-24T02:31:38.973Z,481.00
2024-04-24T02:32:38.939Z,480.00
2024-04-24T02:33:38.824Z,483.00
2024-04-24T02:34:41.868Z,483.00
2024-04-24T02:35:38.786Z,484.00
2024-04-24T02:36:38.785Z,483.00
2024-04-24T02:37:39.483Z,481.00
2024-04-24T02:38:38.795Z,481.00
2024-04-24T02:39:38.754Z,480.00
2024-04-24T02:40:38.770Z,481.00
2024-04-24T02:41:38.783Z,479.00
2024-04-24T02:42:38.773Z,481.00
2024-04-24T02:43:38.780Z,479.00
2024-04-24T02:44:38.792Z,480.00
2024-04-24T02:45:38.804Z,481.00
2024-04-24T02:46:38.813Z,482.00
2024-04-24T02:47:38.890Z,482.00
2024-04-24T02:48:38.902Z,484.00
2024-04-24T02:49:38.844Z,486.00
2024-04-24T02:50:38.828Z,486.00
2024-04-24T02:51:38.847Z,487.00
2024-04-24T02:52:38.805Z,485.00
2024-04-24T02:53:38.787Z,484.00
2024-04-24T02:54:38.789Z,481.00
2024-04-24T02:55:38.838Z,481.00
2024-04-24T02:56:38.810Z,481.00
2024-04-24T02:57:38.828Z,481.00
2024-04-24T02:58:38.819Z,479.00
2024-04-24T02:59:38.828Z,482.00
2024-04-24T03:00:38.818Z,485.00
2024-04-24T03:01:38.844Z,482.00
2024-04-24T03:02:38.935Z,481.00
2024-04-24T03:03:38.892Z,480.00
2024-04-24T03:04:38.791Z,480.00
2024-04-24T03:05:38.824Z,481.00
2024-04-24T03:06:38.808Z,482.00
2024-04-24T03:07:38.820Z,482.00
2024-04-24T03:08:38.835Z,480.00
2024-04-24T03:09:49.928Z,482.00
2024-04-24T03:10:39.920Z,483.00
2024-04-24T03:11:40.965Z,484.00
2024-04-24T03:12:38.847Z,483.00
2024-04-24T03:13:38.848Z,483.00
2024-04-24T03:14:38.835Z,483.00
2024-04-24T03:15:38.842Z,485.00
2024-04-24T03:16:38.904Z,485.00
2024-04-24T03:17:38.919Z,485.00
2024-04-24T03:18:38.892Z,484.00
2024-04-24T03:19:38.855Z,484.00
2024-04-24T03:20:38.830Z,483.00
2024-04-24T03:21:38.844Z,480.00
2024-04-24T03:22:38.900Z,481.00
2024-04-24T03:23:38.843Z,480.00
2024-04-24T03:24:38.868Z,477.00
2024-04-24T03:25:38.868Z,477.00
2024-04-24T03:26:38.879Z,478.00
2024-04-24T03:27:38.911Z,476.00
2024-04-24T03:28:38.926Z,473.00
2024-04-24T03:29:38.950Z,475.00
2024-04-24T03:30:38.953Z,474.00
2024-04-24T03:31:38.989Z,474.00
2024-04-24T03:32:39.049Z,478.00
2024-04-24T03:33:39.058Z,478.00
2024-04-24T03:34:39.083Z,478.00
2024-04-24T03:35:39.168Z,476.00
2024-04-24T03:36:39.156Z,477.00
2024-04-24T03:37:39.181Z,477.00
2024-04-24T03:38:39.153Z,478.00
2024-04-24T03:39:39.196Z,479.00
2024-04-24T03:40:39.336Z,481.00
2024-04-24T03:41:39.191Z,484.00
2024-04-24T03:42:39.231Z,483.00
2024-04-24T03:43:39.227Z,483.00
2024-04-24T03:44:39.252Z,481.00
2024-04-24T03:45:39.284Z,481.00
2024-04-24T03:46:39.459Z,481.00
2024-04-24T03:47:39.639Z,479.00
2024-04-24T03:48:41.867Z,482.00
2024-04-24T03:49:39.453Z,483.00
2024-04-24T03:50:39.461Z,482.00
2024-04-24T03:51:39.325Z,480.00
2024-04-24T03:52:39.369Z,479.00
2024-04-24T03:53:39.335Z,481.00
2024-04-24T03:54:39.344Z,482.00
2024-04-24T03:55:39.340Z,484.00
2024-04-24T03:56:39.351Z,483.00
2024-04-24T03:57:39.361Z,483.00
2024-04-24T03:58:39.371Z,482.00
2024-04-24T03:59:39.440Z,484.00
2024-04-24T04:00:39.409Z,481.00
2024-04-24T04:01:39.364Z,481.00
2024-04-24T04:02:39.442Z,480.00
2024-04-24T04:03:39.505Z,480.00
2024-04-24T04:04:39.557Z,481.00
2024-04-24T04:05:39.593Z,481.00
2024-04-24T04:06:39.551Z,480.00
2024-04-24T04:07:39.628Z,483.00
2024-04-24T04:08:39.398Z,482.00
2024-04-24T04:09:39.426Z,482.00
2024-04-24T04:10:39.383Z,485.00
2024-04-24T04:11:39.531Z,486.00
2024-04-24T04:12:39.397Z,485.00
2024-04-24T04:13:39.398Z,483.00
2024-04-24T04:14:39.397Z,484.00
2024-04-24T04:15:39.602Z,485.00
2024-04-24T04:16:39.573Z,490.00
2024-04-24T04:17:39.585Z,491.00
2024-04-24T04:18:39.666Z,491.00
2024-04-24T04:19:39.515Z,492.00
2024-04-24T04:20:39.547Z,489.00
2024-04-24T04:21:39.382Z,490.00
2024-04-24T04:22:42.616Z,491.00
2024-04-24T04:23:39.652Z,493.00
2024-04-24T04:24:39.395Z,493.00
2024-04-24T04:25:39.405Z,492.00
2024-04-24T04:26:39.399Z,493.00
2024-04-24T04:27:39.400Z,492.00
2024-04-24T04:28:39.457Z,494.00
2024-04-24T04:29:39.446Z,491.00
2024-04-24T04:30:46.646Z,513.00
2024-04-24T04:31:53.983Z,497.00
2024-04-24T04:32:53.956Z,502.00
2024-04-24T04:33:53.983Z,505.00
2024-04-24T04:34:53.919Z,505.00
2024-04-24T04:35:53.904Z,505.00
2024-04-24T04:36:53.890Z,505.00
2024-04-24T04:37:53.919Z,504.00
2024-04-24T04:38:53.868Z,505.00
2024-04-24T04:39:53.912Z,504.00
2024-04-24T04:40:53.960Z,502.00
2024-04-24T04:41:53.911Z,500.00
2024-04-24T04:42:53.946Z,502.00
2024-04-24T04:43:53.949Z,498.00
2024-04-24T04:44:54.004Z,495.00
2024-04-24T04:45:53.932Z,495.00
2024-04-24T04:46:54.063Z,495.00
2024-04-24T04:47:54.081Z,495.00
2024-04-24T04:48:54.053Z,497.00
2024-04-24T04:49:53.995Z,499.00
2024-04-24T04:50:53.996Z,496.00
2024-04-24T04:51:53.970Z,496.00
2024-04-24T04:52:54.012Z,497.00
2024-04-24T04:53:53.971Z,499.00
2024-04-24T04:54:54.024Z,500.00
2024-04-24T04:55:54.049Z,500.00
2024-04-24T04:56:54.061Z,499.00
2024-04-24T04:57:54.009Z,498.00
2024-04-24T04:58:54.006Z,499.00
2024-04-24T04:59:53.891Z,500.00
2024-04-24T05:00:53.924Z,500.00
2024-04-24T05:01:55.822Z,500.00
2024-04-24T05:02:54.056Z,497.00
2024-04-24T05:03:54.013Z,496.00
2024-04-24T05:04:54.211Z,496.00
2024-04-24T05:05:54.107Z,495.00
2024-04-24T05:06:54.063Z,495.00
2024-04-24T05:07:54.128Z,495.00
2024-04-24T05:08:54.568Z,492.00
2024-04-24T05:09:54.185Z,491.00
2024-04-24T05:10:53.955Z,491.00
2024-04-24T05:11:53.980Z,493.00
2024-04-24T05:12:54.108Z,493.00
2024-04-24T05:13:53.955Z,493.00
2024-04-24T05:14:54.139Z,492.00
2024-04-24T05:15:53.903Z,491.00
2024-04-24T05:16:53.994Z,491.00
2024-04-24T05:17:54.026Z,491.00
2024-04-24T05:18:54.256Z,491.00
2024-04-24T05:19:53.957Z,491.00
2024-04-24T05:20:53.917Z,490.00
2024-04-24T05:21:53.901Z,491.00
2024-04-24T05:22:53.922Z,490.00
2024-04-24T05:23:53.904Z,490.00
2024-04-24T05:24:53.906Z,487.00
2024-04-24T05:25:53.947Z,488.00
2024-04-24T05:26:53.907Z,488.00
2024-04-24T05:27:53.920Z,487.00
2024-04-24T05:28:53.926Z,487.00
2024-04-24T05:29:53.938Z,486.00
2024-04-24T05:30:53.895Z,486.00
2024-04-24T05:31:53.936Z,488.00
2024-04-24T05:32:53.968Z,489.00
2024-04-24T05:33:54.673Z,488.00
2024-04-24T05:34:53.946Z,487.00
2024-04-24T05:35:53.920Z,490.00
2024-04-24T05:36:54.294Z,499.00
2024-04-24T05:37:53.984Z,573.00
2024-04-24T05:38:54.010Z,598.00
2024-04-24T05:39:53.944Z,619.00
2024-04-24T05:40:53.950Z,630.00
2024-04-24T05:41:53.910Z,634.00
2024-04-24T05:42:53.905Z,640.00
2024-04-24T05:43:53.984Z,649.00
2024-04-24T05:44:53.918Z,664.00
2024-04-24T05:45:55.172Z,674.00
2024-04-24T05:46:53.970Z,679.00
2024-04-24T05:47:53.977Z,683.00
2024-04-24T05:48:54.603Z,700.00
2024-04-24T05:49:53.970Z,707.00
2024-04-24T05:50:53.979Z,713.00
2024-04-24T05:51:53.952Z,724.00
2024-04-24T05:52:53.961Z,733.00
2024-04-24T05:53:53.951Z,741.00
2024-04-24T05:54:54.046Z,748.00
2024-04-24T05:55:53.960Z,759.00
2024-04-24T05:56:53.970Z,779.00
2024-04-24T05:57:54.030Z,799.00
2024-04-24T05:58:54.013Z,807.00
2024-04-24T05:59:53.953Z,816.00
2024-04-24T06:00:54.654Z,820.00
2024-04-24T06:01:53.989Z,828.00
2024-04-24T06:02:54.032Z,836.00
2024-04-24T06:03:54.041Z,842.00
2024-04-24T06:04:54.055Z,849.00
2024-04-24T06:05:53.981Z,852.00
2024-04-24T06:06:56.182Z,866.00
2024-04-24T06:07:54.148Z,874.00
2024-04-24T06:08:54.211Z,880.00
2024-04-24T06:09:54.266Z,881.00
2024-04-24T06:10:54.499Z,888.00
2024-04-24T06:11:54.711Z,893.00
2024-04-24T06:12:54.562Z,901.00
2024-04-24T06:13:54.683Z,904.00
2024-04-24T06:14:54.858Z,904.00
2024-04-24T06:15:54.601Z,908.00
2024-04-24T06:16:54.703Z,915.00
2024-04-24T06:17:57.834Z,919.00
2024-04-24T06:18:55.118Z,920.00
2024-04-24T06:19:54.920Z,925.00
2024-04-24T06:20:54.871Z,928.00
2024-04-24T06:21:54.732Z,932.00
2024-04-24T06:22:54.837Z,937.00
2024-04-24T06:23:54.988Z,941.00
2024-04-24T06:24:54.733Z,945.00
2024-04-24T06:25:54.774Z,945.00
2024-04-24T06:26:54.683Z,950.00
2024-04-24T06:27:54.693Z,951.00
2024-04-24T06:28:54.821Z,952.00
2024-04-24T06:29:54.698Z,954.00
2024-04-24T06:30:54.709Z,955.00
2024-04-24T06:31:54.780Z,955.00
2024-04-24T06:32:55.206Z,960.00
2024-04-24T06:33:54.757Z,965.00
2024-04-24T06:34:54.728Z,966.00
2024-04-24T06:35:54.722Z,962.00
2024-04-24T06:36:54.753Z,919.00
2024-04-24T06:37:55.000Z,888.00
2024-04-24T06:38:54.783Z,814.00
2024-04-24T06:39:54.725Z,921.00
2024-04-24T06:40:54.821Z,904.00
2024-04-24T06:41:54.730Z,850.00
2024-04-24T06:42:54.739Z,832.00
2024-04-24T06:43:54.768Z,863.00
2024-04-24T06:44:55.037Z,882.00
2024-04-24T06:45:54.715Z,887.00
2024-04-24T06:46:54.811Z,889.00
2024-04-24T06:47:55.791Z,888.00
2024-04-24T06:48:54.895Z,890.00
2024-04-24T06:49:54.772Z,892.00
2024-04-24T06:50:56.782Z,891.00
2024-04-24T06:51:57.765Z,893.00
2024-04-24T06:52:55.263Z,896.00
2024-04-24T06:53:55.003Z,898.00
2024-04-24T06:54:55.077Z,898.00
2024-04-24T06:55:55.139Z,899.00
2024-04-24T06:56:54.755Z,903.00
2024-04-24T06:57:56.283Z,905.00
2024-04-24T06:58:54.889Z,903.00
2024-04-24T06:59:54.749Z,904.00
2024-04-24T07:00:54.904Z,908.00
2024-04-24T07:01:54.840Z,926.00
2024-04-24T07:02:55.270Z,943.00
2024-04-24T07:03:56.220Z,954.00
2024-04-24T07:04:54.831Z,958.00
2024-04-24T07:05:55.082Z,960.00
2024-04-24T07:06:54.821Z,964.00
2024-04-24T07:07:54.856Z,966.00
2024-04-24T07:08:54.812Z,973.00
2024-04-24T07:09:55.846Z,979.00
2024-04-24T07:10:55.427Z,983.00
2024-04-24T07:11:55.174Z,983.00
2024-04-24T07:12:54.852Z,957.00
2024-04-24T07:13:54.843Z,946.00
2024-04-24T07:14:54.764Z,949.00
2024-04-24T07:15:54.771Z,948.00
2024-04-24T07:16:54.874Z,960.00
2024-04-24T07:17:55.054Z,959.00
2024-04-24T07:18:54.965Z,951.00
2024-04-24T07:19:54.861Z,948.00
2024-04-24T07:20:55.051Z,941.00
2024-04-24T07:21:54.807Z,931.00
2024-04-24T07:22:54.851Z,928.00
2024-04-24T07:23:54.829Z,920.00
2024-04-24T07:24:56.555Z,913.00
2024-04-24T07:25:54.944Z,907.00
2024-04-24T07:26:54.815Z,897.00
2024-04-24T07:28:28.454Z,885.00
2024-04-24T07:28:55.129Z,881.00
2024-04-24T07:29:54.958Z,877.00
2024-04-24T07:30:54.892Z,874.00
2024-04-24T07:31:54.907Z,871.00
2024-04-24T07:32:54.907Z,838.00
2024-04-24T07:33:54.862Z,803.00
2024-04-24T07:34:55.012Z,753.00
2024-04-24T07:35:54.862Z,714.00
2024-04-24T07:36:54.788Z,745.00
2024-04-24T07:37:54.988Z,761.00
2024-04-24T07:38:54.868Z,823.00
2024-04-24T07:39:54.866Z,827.00
2024-04-24T07:40:54.911Z,827.00
2024-04-24T07:41:54.917Z,846.00
2024-04-24T07:42:54.826Z,851.00
2024-04-24T07:43:55.074Z,855.00
2024-04-24T07:44:54.903Z,860.00
2024-04-24T07:45:55.221Z,868.00
2024-04-24T07:46:54.968Z,871.00
2024-04-24T07:47:55.036Z,879.00
2024-04-24T07:48:54.938Z,885.00
2024-04-24T07:49:55.035Z,888.00
2024-04-24T07:50:54.858Z,894.00
2024-04-24T07:51:56.032Z,898.00
2024-04-24T07:52:55.150Z,904.00
2024-04-24T07:53:54.858Z,915.00
2024-04-24T07:54:55.136Z,923.00
2024-04-24T07:55:55.137Z,928.00
2024-04-24T07:56:55.351Z,932.00
2024-04-24T07:57:54.836Z,935.00
2024-04-24T07:58:54.927Z,942.00
2024-04-24T07:59:54.867Z,947.00
2024-04-24T08:00:54.934Z,952.00
2024-04-24T08:01:55.127Z,955.00
2024-04-24T08:02:55.109Z,962.00
2024-04-24T08:03:54.934Z,977.00
2024-04-24T08:04:55.927Z,982.00
2024-04-24T08:05:55.206Z,983.00
2024-04-24T08:06:54.870Z,981.00
2024-04-24T08:07:55.503Z,982.00
2024-04-24T08:08:56.486Z,983.00
2024-04-24T08:09:55.098Z,983.00
2024-04-24T08:10:55.264Z,977.00
2024-04-24T08:11:55.315Z,972.00
2024-04-24T08:12:55.001Z,965.00
2024-04-24T08:13:55.164Z,960.00
2024-04-24T08:14:54.880Z,958.00
2024-04-24T08:15:55.005Z,955.00
2024-04-24T08:16:55.063Z,952.00
2024-04-24T08:17:55.214Z,957.00
2024-04-24T08:18:54.960Z,961.00
2024-04-24T08:19:55.192Z,964.00
2024-04-24T08:20:54.962Z,967.00
2024-04-24T08:21:54.946Z,969.00
2024-04-24T08:22:54.976Z,974.00
2024-04-24T08:23:55.654Z,978.00
2024-04-24T08:24:54.927Z,985.00
2024-04-24T08:26:10.622Z,989.00
2024-04-24T08:26:55.306Z,999.00
2024-04-24T08:27:56.049Z,999.00
2024-04-24T08:28:55.129Z,1002.00
2024-04-24T08:29:55.158Z,994.00
2024-04-24T08:30:55.035Z,968.00
2024-04-24T08:31:55.012Z,959.00
2024-04-24T08:32:55.326Z,946.00
2024-04-24T08:33:55.065Z,932.00
2024-04-24T08:34:55.159Z,918.00
2024-04-24T08:35:54.912Z,906.00
2024-04-24T08:36:54.987Z,891.00
2024-04-24T08:37:55.021Z,879.00
2024-04-24T08:38:54.972Z,858.00
2024-04-24T08:39:54.969Z,847.00
2024-04-24T08:40:57.021Z,839.00
2024-04-24T08:41:57.840Z,839.00
2024-04-24T08:42:55.135Z,817.00
2024-04-24T08:43:55.086Z,814.00
2024-04-24T08:44:55.011Z,847.00
2024-04-24T08:45:55.007Z,824.00
2024-04-24T08:46:55.047Z,813.00
2024-04-24T08:47:55.227Z,810.00
2024-04-24T08:48:55.198Z,808.00
2024-04-24T08:49:56.455Z,803.00
2024-04-24T08:50:54.903Z,793.00
2024-04-24T08:51:57.490Z,788.00
2024-04-24T08:52:55.715Z,790.00
2024-04-24T08:53:55.151Z,821.00
2024-04-24T08:54:55.229Z,837.00
2024-04-24T08:55:55.282Z,840.00
2024-04-24T08:56:56.120Z,841.00
2024-04-24T08:57:55.399Z,844.00
2024-04-24T08:58:55.407Z,846.00
2024-04-24T08:59:56.081Z,851.00
2024-04-24T09:00:55.444Z,855.00
2024-04-24T09:01:56.186Z,866.00
2024-04-24T09:02:55.527Z,873.00
2024-04-24T09:03:55.604Z,883.00
2024-04-24T09:04:55.560Z,913.00
2024-04-24T09:05:58.564Z,918.00
2024-04-24T09:07:00.344Z,917.00
2024-04-24T09:07:55.642Z,918.00
2024-04-24T09:08:55.464Z,913.00
2024-04-24T09:09:55.654Z,918.00
2024-04-24T09:10:55.553Z,929.00
2024-04-24T09:11:55.547Z,933.00
2024-04-24T09:12:55.510Z,938.00
2024-04-24T09:13:56.085Z,942.00
2024-04-24T09:14:55.796Z,947.00
2024-04-24T09:16:01.513Z,953.00
2024-04-24T09:16:55.590Z,962.00
2024-04-24T09:17:55.771Z,973.00
2024-04-24T09:18:58.785Z,986.00
2024-04-24T09:19:55.530Z,992.00
2024-04-24T09:20:57.622Z,996.00
2024-04-24T09:21:55.614Z,990.00
2024-04-24T09:22:55.594Z,992.00
2024-04-24T09:23:57.587Z,994.00
2024-04-24T09:24:57.410Z,995.00
2024-04-24T09:25:55.794Z,993.00
2024-04-24T09:26:55.810Z,985.00
2024-04-24T09:27:56.385Z,882.00
2024-04-24T09:28:56.052Z,834.00
2024-04-24T09:29:56.208Z,824.00
2024-04-24T09:30:55.789Z,800.00
2024-04-24T09:31:55.918Z,791.00
2024-04-24T09:32:55.958Z,788.00
2024-04-24T09:33:55.951Z,755.00
2024-04-24T09:34:56.162Z,742.00
2024-04-24T09:35:56.140Z,793.00
2024-04-24T09:36:56.638Z,795.00
2024-04-24T09:37:56.652Z,803.00
2024-04-24T09:38:56.146Z,817.00
2024-04-24T09:39:56.652Z,824.00
2024-04-24T09:40:56.671Z,825.00
2024-04-24T09:41:56.597Z,833.00
2024-04-24T09:42:56.247Z,856.00
2024-04-24T09:43:56.295Z,853.00
2024-04-24T09:44:56.366Z,779.00
2024-04-24T09:45:56.316Z,770.00
2024-04-24T09:46:56.369Z,716.00
2024-04-24T09:47:56.555Z,704.00
2024-04-24T09:48:56.581Z,687.00
2024-04-24T09:49:56.603Z,678.00
2024-04-24T09:50:56.621Z,662.00
2024-04-24T09:51:56.536Z,659.00
2024-04-24T09:52:56.623Z,659.00
2024-04-24T09:53:56.594Z,658.00
2024-04-24T09:54:56.634Z,657.00
2024-04-24T09:55:58.293Z,658.00
2024-04-24T09:56:56.714Z,657.00
2024-04-24T09:57:56.754Z,652.00
2024-04-24T09:58:56.944Z,682.00
2024-04-24T09:59:56.888Z,699.00
2024-04-24T10:00:57.189Z,687.00
2024-04-24T10:01:58.117Z,690.00
2024-04-24T10:02:57.190Z,685.00
2024-04-24T10:03:58.130Z,678.00
2024-04-24T10:04:57.372Z,672.00
2024-04-24T10:05:57.889Z,642.00
2024-04-24T10:06:57.683Z,628.00
2024-04-24T10:07:57.418Z,628.00
2024-04-24T10:08:57.701Z,633.00
2024-04-24T10:09:57.386Z,644.00
2024-04-24T10:10:57.395Z,658.00
2024-04-24T10:11:57.621Z,693.00
2024-04-24T10:12:58.287Z,696.00
2024-04-24T10:13:57.672Z,717.00
2024-04-24T10:14:57.665Z,718.00
2024-04-24T10:15:57.663Z,712.00
2024-04-24T10:16:57.732Z,715.00
2024-04-24T10:17:57.769Z,719.00
2024-04-24T10:18:58.323Z,721.00
2024-04-24T10:20:02.782Z,724.00
2024-04-24T10:20:59.442Z,725.00
2024-04-24T10:21:57.735Z,735.00
2024-04-24T10:22:57.799Z,737.00
2024-04-24T10:23:58.193Z,741.00
2024-04-24T10:24:57.754Z,739.00
2024-04-24T10:25:57.824Z,735.00
2024-04-24T10:26:57.817Z,732.00
2024-04-24T10:27:57.850Z,736.00
2024-04-24T10:28:58.682Z,745.00
2024-04-24T10:29:57.821Z,749.00
2024-04-24T10:30:58.272Z,747.00
2024-04-24T10:31:58.221Z,740.00
2024-04-24T10:32:58.110Z,735.00
2024-04-24T10:33:58.037Z,735.00
2024-04-24T10:34:58.195Z,734.00
2024-04-24T10:35:58.067Z,729.00
2024-04-24T10:36:58.677Z,727.00
2024-04-24T10:37:58.223Z,721.00
2024-04-24T10:38:58.191Z,720.00
2024-04-24T10:39:58.361Z,719.00
2024-04-24T10:40:58.324Z,713.00
2024-04-24T10:41:58.641Z,707.00
2024-04-24T10:42:58.450Z,708.00
2024-04-24T10:43:58.475Z,701.00
2024-04-24T10:44:58.506Z,702.00
2024-04-24T10:45:58.615Z,704.00
2024-04-24T10:46:58.725Z,696.00
2024-04-24T10:47:59.087Z,697.00
2024-04-24T10:48:58.848Z,693.00
2024-04-24T10:49:59.988Z,694.00
2024-04-24T10:51:01.862Z,686.00
2024-04-24T10:51:59.257Z,688.00
2024-04-24T10:52:58.881Z,694.00
2024-04-24T10:53:59.037Z,693.00
2024-04-24T10:54:59.279Z,692.00
2024-04-24T10:55:58.875Z,679.00
2024-04-24T10:56:59.595Z,674.00
2024-04-24T10:57:58.851Z,669.00
2024-04-24T10:58:59.295Z,661.00
2024-04-24T10:59:58.863Z,650.00
2024-04-24T11:00:59.225Z,654.00
2024-04-24T11:01:58.989Z,657.00
2024-04-24T11:03:02.380Z,659.00
2024-04-24T11:03:59.208Z,664.00
2024-04-24T11:04:58.903Z,662.00
2024-04-24T11:05:58.897Z,657.00
2024-04-24T11:06:58.858Z,658.00
2024-04-24T11:07:59.310Z,654.00
2024-04-24T11:08:59.014Z,652.00
2024-04-24T11:09:59.160Z,653.00
2024-04-24T11:10:59.240Z,656.00
2024-04-24T11:11:59.061Z,658.00
2024-04-24T11:12:59.478Z,657.00
2024-04-24T11:13:59.280Z,654.00
2024-04-24T11:14:59.581Z,665.00
2024-04-24T11:16:05.853Z,670.00
2024-04-24T11:16:59.953Z,670.00
2024-04-24T11:17:58.986Z,666.00
2024-04-24T11:18:59.043Z,662.00
2024-04-24T11:19:59.220Z,653.00
2024-04-24T11:20:58.911Z,651.00
2024-04-24T11:21:58.879Z,654.00
2024-04-24T11:22:58.912Z,660.00
2024-04-24T11:23:58.957Z,677.00
2024-04-24T11:24:59.014Z,699.00
2024-04-24T11:26:00.303Z,690.00
2024-04-24T11:26:59.094Z,685.00
2024-04-24T11:27:59.157Z,679.00
2024-04-24T11:28:59.298Z,670.00
2024-04-24T11:29:59.362Z,654.00
2024-04-24T11:30:59.361Z,634.00
2024-04-24T11:32:00.452Z,620.00
2024-04-24T11:32:59.586Z,611.00
2024-04-24T11:33:59.585Z,603.00
2024-04-24T11:34:59.443Z,594.00
2024-04-24T11:35:59.491Z,589.00
2024-04-24T11:36:59.428Z,576.00
2024-04-24T11:37:59.457Z,571.00
2024-04-24T11:38:59.462Z,566.00
2024-04-24T11:39:59.553Z,563.00
2024-04-24T11:40:59.547Z,561.00
2024-04-24T11:41:59.525Z,557.00
2024-04-24T11:42:59.556Z,553.00
2024-04-24T11:43:59.555Z,553.00
2024-04-24T11:44:59.464Z,545.00
2024-04-24T11:45:59.468Z,545.00
2024-04-24T11:46:59.523Z,540.00
2024-04-24T11:47:59.519Z,538.00
2024-04-24T11:48:59.493Z,532.00
2024-04-24T11:49:59.769Z,531.00
2024-04-24T11:50:59.491Z,526.00
2024-04-24T11:51:59.624Z,525.00
2024-04-24T11:52:59.584Z,522.00
2024-04-24T11:53:59.484Z,518.00
2024-04-24T11:54:59.537Z,517.00
2024-04-24T11:55:59.557Z,515.00
2024-04-24T11:56:59.544Z,512.00
2024-04-24T11:57:59.502Z,513.00
2024-04-24T11:58:59.512Z,514.00
2024-04-24T11:59:59.480Z,516.00
2024-04-24T12:00:59.527Z,518.00
2024-04-24T12:01:59.553Z,520.00
2024-04-24T12:02:59.592Z,521.00
2024-04-24T12:03:59.451Z,525.00
2024-04-24T12:04:59.535Z,524.00
2024-04-24T12:05:59.492Z,528.00
2024-04-24T12:06:59.503Z,537.00
2024-04-24T12:07:59.452Z,578.00
2024-04-24T12:08:59.460Z,587.00
2024-04-24T12:09:59.489Z,590.00
2024-04-24T12:10:59.581Z,589.00
2024-04-24T12:11:59.584Z,585.00
2024-04-24T12:12:59.465Z,578.00
2024-04-24T12:13:59.518Z,573.00
2024-04-24T12:14:59.470Z,572.00
2024-04-24T12:15:59.512Z,572.00
2024-04-24T12:16:59.499Z,570.00
2024-04-24T12:17:59.556Z,567.00
2024-04-24T12:18:59.477Z,565.00
2024-04-24T12:19:59.563Z,564.00
2024-04-24T12:21:02.316Z,560.00
2024-04-24T12:21:59.503Z,557.00
2024-04-24T12:22:59.539Z,554.00
2024-04-24T12:23:59.556Z,549.00
2024-04-24T12:24:59.514Z,547.00
2024-04-24T12:25:59.572Z,547.00
2024-04-24T12:26:59.461Z,546.00
2024-04-24T12:27:59.504Z,543.00
2024-04-24T12:28:59.497Z,543.00